createdAt,value
2023-01-30T00:01:30.174Z,1.45
2023-01-30T00:03:59.094Z,1.50
2023-01-30T00:06:28.025Z,1.20
2023-01-30T00:08:56.767Z,1.30
2023-01-30T00:11:25.547Z,1.20
2023-01-30T00:13:54.140Z,1.17
2023-01-30T00:16:22.559Z,1.10
2023-01-30T00:18:51.365Z,1.20
2023-01-30T00:21:20.256Z,1.45
2023-01-30T00:23:48.863Z,1.30
2023-01-30T00:26:17.455Z,0.90
2023-01-30T00:28:46.030Z,1.20
2023-01-30T00:31:14.869Z,1.02
2023-01-30T00:33:43.518Z,1.50
2023-01-30T00:36:12.707Z,1.23
2023-01-30T00:38:41.319Z,1.35
2023-01-30T00:41:11.961Z,1.10
2023-01-30T00:43:58.682Z,1.45
2023-01-30T00:46:53.012Z,1.15
2023-01-30T00:49:22.167Z,1.30
2023-01-30T00:51:50.778Z,1.20
2023-01-30T00:54:19.371Z,0.98
2023-01-30T00:56:47.990Z,1.00
2023-01-30T00:59:16.811Z,1.10
2023-01-30T01:01:46.089Z,1.00
2023-01-30T01:04:15.026Z,0.98
2023-01-30T01:06:43.683Z,1.10
2023-01-30T01:09:12.386Z,1.20
2023-01-30T01:11:41.140Z,1.10
2023-01-30T01:14:09.777Z,1.20
2023-01-30T01:16:38.766Z,1.15
2023-01-30T01:19:07.229Z,1.20
2023-01-30T01:21:35.741Z,1.10
2023-01-30T01:24:04.349Z,1.05
2023-01-30T01:26:32.725Z,1.30
2023-01-30T01:29:01.421Z,1.10
2023-01-30T01:31:30.098Z,1.20
2023-01-30T01:33:59.259Z,0.98
2023-01-30T01:36:53.352Z,0.95
2023-01-30T01:39:16.514Z,0.90
2023-01-30T01:41:45.129Z,1.42
2023-01-30T01:44:15.321Z,1.05
2023-01-30T01:46:57.249Z,1.10
2023-01-30T01:49:27.685Z,1.25
2023-01-30T01:52:09.712Z,1.55
2023-01-30T01:54:43.813Z,1.30
2023-01-30T01:57:20.271Z,3.08
2023-01-30T01:59:53.522Z,1.88
2023-01-30T02:02:22.891Z,1.35
2023-01-30T02:05:04.752Z,1.50
2023-01-30T02:07:54.740Z,1.33
2023-01-30T02:10:26.477Z,1.20
2023-01-30T02:12:55.090Z,1.35
2023-01-30T02:15:23.815Z,1.65
2023-01-30T02:17:52.497Z,1.75
2023-01-30T02:20:49.823Z,1.10
2023-01-30T02:23:59.757Z,2.28
2023-01-30T02:26:36.628Z,1.10
2023-01-30T02:29:42.729Z,0.93
2023-01-30T02:32:35.272Z,1.25
2023-01-30T02:35:17.387Z,1.00
2023-01-30T02:37:48.494Z,0.80
2023-01-30T02:40:25.403Z,0.80
2023-01-30T02:43:17.323Z,0.90
2023-01-30T02:46:02.146Z,0.88
2023-01-30T02:48:37.936Z,1.20
2023-01-30T02:51:18.621Z,0.80
2023-01-30T02:53:49.457Z,1.10
2023-01-30T02:56:18.206Z,0.93
2023-01-30T02:58:51.328Z,1.05
2023-01-30T03:01:26.479Z,1.00
2023-01-30T03:04:04.249Z,1.00
2023-01-30T03:06:55.705Z,1.25
2023-01-30T03:09:53.103Z,0.90
2023-01-30T03:13:02.725Z,0.93
2023-01-30T03:15:36.984Z,1.02
2023-01-30T03:18:06.056Z,1.35
2023-01-30T03:20:42.070Z,1.55
2023-01-30T03:23:10.836Z,1.10
2023-01-30T03:25:41.743Z,1.48
2023-01-30T03:28:10.995Z,1.63
2023-01-30T03:30:39.585Z,1.60
2023-01-30T03:33:08.128Z,1.42
2023-01-30T03:35:36.902Z,1.50
2023-01-30T03:38:05.509Z,1.10
2023-01-30T03:40:35.348Z,1.52
2023-01-30T03:43:04.028Z,1.63
2023-01-30T03:45:32.683Z,1.30
2023-01-30T03:48:01.240Z,1.08
2023-01-30T03:50:30.833Z,0.85
2023-01-30T03:52:59.407Z,1.10
2023-01-30T03:55:28.026Z,0.90
2023-01-30T03:57:58.192Z,1.17
2023-01-30T04:00:27.009Z,0.95
2023-01-30T04:02:59.387Z,1.27
2023-01-30T04:05:28.026Z,1.00
2023-01-30T04:07:59.289Z,1.10
2023-01-30T04:10:28.652Z,0.98
2023-01-30T04:12:57.297Z,1.00
2023-01-30T04:15:25.905Z,1.00
2023-01-30T04:17:54.549Z,0.93
2023-01-30T04:20:23.132Z,0.90
2023-01-30T04:22:51.758Z,1.00
2023-01-30T04:25:20.816Z,1.20
2023-01-30T04:27:49.760Z,0.77
2023-01-30T04:30:18.905Z,0.80
2023-01-30T04:32:47.568Z,1.10
2023-01-30T04:35:16.255Z,0.80
2023-01-30T04:37:45.049Z,0.90
2023-01-30T04:40:14.178Z,0.80
2023-01-30T04:42:42.723Z,0.75
2023-01-30T04:45:11.820Z,0.82
2023-01-30T04:47:40.391Z,1.00
2023-01-30T04:50:09.639Z,1.02
2023-01-30T04:52:39.848Z,0.95
2023-01-30T04:55:08.849Z,0.90
2023-01-30T04:57:37.486Z,0.90
2023-01-30T05:00:07.119Z,0.95
2023-01-30T05:02:36.152Z,0.63
2023-01-30T05:05:05.027Z,0.75
2023-01-30T05:07:33.628Z,0.70
2023-01-30T05:10:03.806Z,0.80
2023-01-30T05:12:32.343Z,0.98
2023-01-30T05:15:01.321Z,0.80
2023-01-30T05:17:30.412Z,0.80
2023-01-30T05:19:59.013Z,0.90
2023-01-30T05:22:27.156Z,0.90
2023-01-30T05:24:55.696Z,0.95
2023-01-30T05:27:24.322Z,0.80
2023-01-30T05:29:52.694Z,0.80
2023-01-30T05:32:22.007Z,1.10
2023-01-30T05:34:51.342Z,1.02
2023-01-30T05:37:19.804Z,0.80
2023-01-30T05:39:48.378Z,0.80
2023-01-30T05:42:17.092Z,1.00
2023-01-30T05:44:45.780Z,0.80
2023-01-30T05:47:14.644Z,1.00
2023-01-30T05:49:43.376Z,0.80
2023-01-30T05:52:12.067Z,0.90
2023-01-30T05:54:40.662Z,1.02
2023-01-30T05:57:09.235Z,0.90
2023-01-30T05:59:37.872Z,1.20
2023-01-30T06:02:06.459Z,0.80
2023-01-30T06:04:36.799Z,0.80
2023-01-30T06:07:05.360Z,0.80
2023-01-30T06:09:33.879Z,0.90
2023-01-30T06:12:02.389Z,0.98
2023-01-30T06:14:30.962Z,0.98
2023-01-30T06:16:59.540Z,0.88
2023-01-30T06:19:28.149Z,0.80
2023-01-30T06:21:56.748Z,0.95
2023-01-30T06:24:25.327Z,0.82
2023-01-30T06:26:53.921Z,0.90
2023-01-30T06:29:22.607Z,0.80
2023-01-30T06:31:50.992Z,1.00
2023-01-30T06:34:18.915Z,1.00
2023-01-30T06:36:47.554Z,0.90
2023-01-30T06:39:16.046Z,1.00
2023-01-30T06:41:44.590Z,1.00
2023-01-30T06:44:13.332Z,0.90
2023-01-30T06:46:41.849Z,0.93
2023-01-30T06:49:10.450Z,0.90
2023-01-30T06:51:39.131Z,0.80
2023-01-30T06:54:07.665Z,1.02
2023-01-30T06:56:36.204Z,0.70
2023-01-30T06:59:04.600Z,0.90
2023-01-30T07:01:33.691Z,1.10
2023-01-30T07:04:02.751Z,0.70
2023-01-30T07:06:31.359Z,0.93
2023-01-30T07:08:59.987Z,0.80
2023-01-30T07:11:28.561Z,0.80
2023-01-30T07:13:57.186Z,0.90
2023-01-30T07:16:30.393Z,0.88
2023-01-30T07:18:59.967Z,0.90
2023-01-30T07:21:28.844Z,0.77
2023-01-30T07:23:57.420Z,0.98
2023-01-30T07:26:26.723Z,0.75
2023-01-30T07:28:55.293Z,0.80
2023-01-30T07:31:23.945Z,0.82
2023-01-30T07:33:52.561Z,0.80
2023-01-30T07:36:21.123Z,0.65
2023-01-30T07:38:52.655Z,0.80
2023-01-30T07:41:21.294Z,0.80
2023-01-30T07:43:50.938Z,0.90
2023-01-30T07:46:19.536Z,0.88
2023-01-30T07:48:48.276Z,0.77
2023-01-30T07:51:16.916Z,0.82
2023-01-30T07:53:45.513Z,0.80
2023-01-30T07:56:19.922Z,1.23
2023-01-30T07:58:48.288Z,0.70
2023-01-30T08:01:17.256Z,0.82
2023-01-30T08:03:47.520Z,0.60
2023-01-30T08:06:16.449Z,0.85
2023-01-30T08:08:48.115Z,0.90
2023-01-30T08:11:16.986Z,0.70
2023-01-30T08:13:45.879Z,0.80
2023-01-30T08:16:14.317Z,0.70
2023-01-30T08:18:43.036Z,0.90
2023-01-30T08:21:12.007Z,0.70
2023-01-30T08:23:40.072Z,1.10
2023-01-30T08:26:08.736Z,0.70
2023-01-30T08:28:37.273Z,0.73
2023-01-30T08:31:11.478Z,0.80
2023-01-30T08:33:40.131Z,0.70
2023-01-30T08:36:09.085Z,1.00
2023-01-30T08:38:37.197Z,0.60
2023-01-30T08:41:09.535Z,0.70
2023-01-30T08:43:38.523Z,0.68
2023-01-30T08:46:06.933Z,0.70
2023-01-30T08:48:48.606Z,0.60
2023-01-30T08:51:17.704Z,0.70
2023-01-30T08:53:46.337Z,0.68
2023-01-30T08:56:14.935Z,0.60
2023-01-30T08:58:45.208Z,0.80
2023-01-30T09:01:14.463Z,0.70
2023-01-30T09:03:43.856Z,0.90
2023-01-30T09:06:12.312Z,0.77
2023-01-30T09:08:40.820Z,0.70
2023-01-30T09:11:09.626Z,0.88
2023-01-30T09:13:40.078Z,0.73
2023-01-30T09:16:08.851Z,0.63
2023-01-30T09:18:42.574Z,0.80
2023-01-30T09:21:12.671Z,0.70
2023-01-30T09:23:41.323Z,0.80
2023-01-30T09:26:10.246Z,0.63
2023-01-30T09:28:38.830Z,0.80
2023-01-30T09:31:07.463Z,0.80
2023-01-30T09:33:36.140Z,0.73
2023-01-30T09:36:04.504Z,0.80
2023-01-30T09:38:33.116Z,0.60
2023-01-30T09:41:01.660Z,0.70
2023-01-30T09:43:48.890Z,0.70
2023-01-30T09:46:50.286Z,0.82
2023-01-30T09:49:21.370Z,0.68
2023-01-30T09:52:00.889Z,0.70
2023-01-30T09:54:36.503Z,0.82
2023-01-30T09:57:21.977Z,0.73
2023-01-30T10:00:30.671Z,0.60
2023-01-30T10:03:13.677Z,0.60
2023-01-30T10:06:08.122Z,0.75
2023-01-30T10:08:44.920Z,0.70
2023-01-30T10:11:42.444Z,0.70
2023-01-30T10:14:39.008Z,0.70
2023-01-30T10:17:26.035Z,0.90
2023-01-30T10:20:15.689Z,0.80
2023-01-30T10:23:03.525Z,0.63
2023-01-30T10:25:36.987Z,0.60
2023-01-30T10:28:24.702Z,0.60
2023-01-30T10:30:56.589Z,0.80
2023-01-30T10:33:37.257Z,0.90
2023-01-30T10:36:12.148Z,0.70
2023-01-30T10:38:51.880Z,0.80
2023-01-30T10:41:31.555Z,0.63
2023-01-30T10:44:22.722Z,0.60
2023-01-30T10:47:13.092Z,0.70
2023-01-30T10:49:54.233Z,0.67
2023-01-30T10:52:35.377Z,0.70
2023-01-30T10:55:36.433Z,0.60
2023-01-30T10:58:25.145Z,0.60
2023-01-30T11:01:23.871Z,0.60
2023-01-30T11:03:57.277Z,0.70
2023-01-30T11:06:27.337Z,0.60
2023-01-30T11:08:57.415Z,0.63
2023-01-30T11:11:56.850Z,0.70
2023-01-30T11:14:25.245Z,0.63
2023-01-30T11:16:56.700Z,0.60
2023-01-30T11:19:35.224Z,0.70
2023-01-30T11:22:05.619Z,0.60
2023-01-30T11:24:41.661Z,0.70
2023-01-30T11:27:21.432Z,0.68
2023-01-30T11:29:51.703Z,0.60
2023-01-30T11:32:30.934Z,0.70
2023-01-30T11:35:08.491Z,0.85
2023-01-30T11:37:45.053Z,0.70
2023-01-30T11:40:19.903Z,0.68
2023-01-30T11:43:12.734Z,0.60
2023-01-30T11:45:47.429Z,0.60
2023-01-30T11:48:33.250Z,0.60
2023-01-30T11:51:16.841Z,0.70
2023-01-30T11:53:56.637Z,0.60
2023-01-30T11:56:25.241Z,0.60
2023-01-30T11:59:19.405Z,0.63
2023-01-30T12:04:17.180Z,0.60
2023-01-30T12:06:45.889Z,0.60
2023-01-30T12:09:41.146Z,0.73
2023-01-30T12:12:38.994Z,0.80
2023-01-30T12:15:17.067Z,0.80
2023-01-30T12:17:54.344Z,0.70
2023-01-30T12:20:49.662Z,0.73
2023-01-30T12:23:39.500Z,0.80
2023-01-30T12:26:23.116Z,0.70
2023-01-30T12:29:26.540Z,0.70
2023-01-30T12:34:35.593Z,0.70
2023-01-30T12:37:10.071Z,0.60
2023-01-30T12:39:57.500Z,0.60
2023-01-30T12:42:34.346Z,0.70
2023-01-30T12:45:25.231Z,0.70
2023-01-30T12:48:23.193Z,0.80
2023-01-30T12:51:17.635Z,0.70
2023-01-30T12:54:13.589Z,0.60
2023-01-30T12:56:56.233Z,0.60
2023-01-30T12:59:50.065Z,0.60
2023-01-30T13:02:19.054Z,0.60
2023-01-30T13:04:56.768Z,0.70
2023-01-30T13:07:43.356Z,0.68
2023-01-30T13:10:24.289Z,0.77
2023-01-30T13:13:10.746Z,0.68
2023-01-30T13:15:47.831Z,0.73
2023-01-30T13:18:26.962Z,0.90
2023-01-30T13:21:17.615Z,0.90
2023-01-30T13:24:04.469Z,0.80
2023-01-30T13:26:36.881Z,0.80
2023-01-30T13:29:20.701Z,0.70
2023-01-30T13:32:02.722Z,0.60
2023-01-30T13:34:41.770Z,0.70
2023-01-30T13:37:17.105Z,1.02
2023-01-30T13:40:15.724Z,0.70
2023-01-30T13:43:00.702Z,0.60
2023-01-30T13:45:32.249Z,0.60
2023-01-30T13:48:07.285Z,0.70
2023-01-30T13:51:00.785Z,0.60
2023-01-30T13:53:41.892Z,0.60
2023-01-30T13:56:39.643Z,0.80
2023-01-30T13:59:17.053Z,0.82
2023-01-30T14:02:08.586Z,0.70
2023-01-30T14:04:39.706Z,0.60
2023-01-30T14:07:10.994Z,0.60
2023-01-30T14:09:44.350Z,0.73
2023-01-30T14:12:41.925Z,0.70
2023-01-30T14:15:17.062Z,0.70
2023-01-30T14:18:21.353Z,0.70
2023-01-30T14:20:52.201Z,0.60
2023-01-30T14:23:35.841Z,0.70
2023-01-30T14:26:04.797Z,0.50
2023-01-30T14:28:33.312Z,0.70
2023-01-30T14:31:04.401Z,0.68
2023-01-30T14:33:49.693Z,0.65
2023-01-30T14:36:18.460Z,0.70
2023-01-30T14:38:58.954Z,0.60
2023-01-30T14:41:29.494Z,1.17
2023-01-30T14:43:58.052Z,1.05
2023-01-30T14:46:26.603Z,0.80
2023-01-30T14:49:22.149Z,0.80
2023-01-30T14:51:51.426Z,0.90
2023-01-30T14:54:25.506Z,0.70
2023-01-30T14:57:00.925Z,0.60
2023-01-30T14:59:48.879Z,0.80
2023-01-30T15:02:26.904Z,0.80
2023-01-30T15:05:04.920Z,0.80
2023-01-30T15:07:53.059Z,0.82
2023-01-30T15:10:44.250Z,1.15
2023-01-30T15:13:31.703Z,0.80
2023-01-30T15:16:25.232Z,0.77
2023-01-30T15:19:04.421Z,0.60
2023-01-30T15:21:50.689Z,0.80
2023-01-30T15:24:37.778Z,0.70
2023-01-30T15:27:33.055Z,0.90
2023-01-30T15:30:18.124Z,1.00
2023-01-30T15:32:47.441Z,1.02
2023-01-30T15:35:19.751Z,1.00
2023-01-30T15:37:48.362Z,1.00
2023-01-30T15:40:17.348Z,1.23
2023-01-30T15:42:55.733Z,1.20
2023-01-30T15:45:43.845Z,0.90
2023-01-30T15:48:24.231Z,1.10
2023-01-30T15:50:55.216Z,1.00
2023-01-30T15:53:37.179Z,0.77
2023-01-30T15:56:09.762Z,0.60
2023-01-30T15:58:43.019Z,1.00
2023-01-30T16:01:12.945Z,0.90
2023-01-30T16:03:43.969Z,1.05
2023-01-30T16:06:41.776Z,0.90
2023-01-30T16:09:24.000Z,1.00
2023-01-30T16:11:52.451Z,1.05
2023-01-30T16:14:22.878Z,0.93
2023-01-30T16:16:57.558Z,1.02
2023-01-30T16:19:37.044Z,1.27
2023-01-30T16:22:07.620Z,0.98
2023-01-30T16:24:37.913Z,1.20
2023-01-30T16:27:10.505Z,1.00
2023-01-30T16:29:54.477Z,1.00
2023-01-30T16:32:33.090Z,1.40
2023-01-30T16:35:27.879Z,1.40
2023-01-30T16:37:58.842Z,0.90
2023-01-30T16:40:45.877Z,0.90
2023-01-30T16:43:24.986Z,1.20
2023-01-30T16:46:28.506Z,1.00
2023-01-30T16:49:05.085Z,1.05
2023-01-30T16:51:34.027Z,1.23
2023-01-30T16:54:05.457Z,1.15
2023-01-30T16:56:35.492Z,1.52
2023-01-30T16:59:04.876Z,1.23
2023-01-30T17:01:39.558Z,1.20
2023-01-30T17:04:20.307Z,1.50
2023-01-30T17:06:58.662Z,1.10
2023-01-30T17:09:45.785Z,1.00
2023-01-30T17:12:32.326Z,1.60
2023-01-30T17:15:15.799Z,1.20
2023-01-30T17:17:45.023Z,1.33
2023-01-30T17:20:14.792Z,1.73
2023-01-30T17:22:46.162Z,1.35
2023-01-30T17:25:31.861Z,1.40
2023-01-30T17:28:00.648Z,1.40
2023-01-30T17:30:28.683Z,1.50
2023-01-30T17:32:57.235Z,1.40
2023-01-30T17:35:25.854Z,1.40
2023-01-30T17:38:04.896Z,1.45
2023-01-30T17:40:37.098Z,1.40
2023-01-30T17:43:06.305Z,1.20
2023-01-30T17:45:35.037Z,1.52
2023-01-30T17:48:03.682Z,1.10
2023-01-30T17:50:33.745Z,1.30
2023-01-30T17:53:02.280Z,1.30
2023-01-30T17:55:30.963Z,1.33
2023-01-30T17:57:59.518Z,1.52
2023-01-30T18:00:28.244Z,1.58
2023-01-30T18:02:56.895Z,1.40
2023-01-30T18:05:25.282Z,1.50
2023-01-30T18:07:53.955Z,1.60
2023-01-30T18:10:22.765Z,1.30
2023-01-30T18:12:51.451Z,2.30
2023-01-30T18:15:20.297Z,1.40
2023-01-30T18:17:50.720Z,1.48
2023-01-30T18:20:21.715Z,1.70
2023-01-30T18:22:50.833Z,1.35
2023-01-30T18:25:19.794Z,1.45
2023-01-30T18:27:49.316Z,1.55
2023-01-30T18:30:18.601Z,1.08
2023-01-30T18:32:54.000Z,1.50
2023-01-30T18:35:23.776Z,1.58
2023-01-30T18:37:52.701Z,1.23
2023-01-30T18:40:22.177Z,1.63
2023-01-30T18:42:51.083Z,1.23
2023-01-30T18:45:19.665Z,1.50
2023-01-30T18:47:48.293Z,1.10
2023-01-30T18:50:17.384Z,1.33
2023-01-30T18:52:46.107Z,1.17
2023-01-30T18:55:14.758Z,1.25
2023-01-30T18:57:43.392Z,1.38
2023-01-30T19:00:12.465Z,1.20
2023-01-30T19:02:44.341Z,1.20
2023-01-30T19:05:12.869Z,1.30
2023-01-30T19:07:41.411Z,1.20
2023-01-30T19:10:10.713Z,1.15
2023-01-30T19:12:57.354Z,1.20
2023-01-30T19:15:26.034Z,1.13
2023-01-30T19:17:54.611Z,0.88
2023-01-30T19:20:24.095Z,0.70
2023-01-30T19:22:56.189Z,0.90
2023-01-30T19:25:24.791Z,0.80
2023-01-30T19:27:55.557Z,0.85
2023-01-30T19:30:24.284Z,0.90
2023-01-30T19:32:55.128Z,0.90
2023-01-30T19:35:23.756Z,0.98
2023-01-30T19:37:56.428Z,0.80
2023-01-30T19:40:25.013Z,0.90
2023-01-30T19:42:56.904Z,0.70
2023-01-30T19:45:28.345Z,0.90
2023-01-30T19:47:56.901Z,1.02
2023-01-30T19:50:25.471Z,0.80
2023-01-30T19:52:54.951Z,0.90
2023-01-30T19:55:23.736Z,0.80
2023-01-30T19:57:52.286Z,0.77
2023-01-30T20:00:22.547Z,0.80
2023-01-30T20:02:52.589Z,0.90
2023-01-30T20:05:22.392Z,0.90
2023-01-30T20:07:51.372Z,0.88
2023-01-30T20:10:20.263Z,0.90
2023-01-30T20:12:49.041Z,0.90
2023-01-30T20:15:17.406Z,0.80
2023-01-30T20:17:45.970Z,1.00
2023-01-30T20:20:14.490Z,1.08
2023-01-30T20:22:43.045Z,0.90
2023-01-30T20:25:11.968Z,1.00
2023-01-30T20:27:40.791Z,0.90
2023-01-30T20:30:10.145Z,0.85
2023-01-30T20:32:38.683Z,1.00
2023-01-30T20:35:07.661Z,0.93
2023-01-30T20:37:35.623Z,1.00
2023-01-30T20:40:04.222Z,0.70
2023-01-30T20:42:32.856Z,1.00
2023-01-30T20:45:01.439Z,1.05
2023-01-30T20:47:29.995Z,1.33
2023-01-30T20:49:58.371Z,1.00
2023-01-30T20:52:27.199Z,1.02
2023-01-30T20:54:58.462Z,0.90
2023-01-30T20:57:27.530Z,1.05
2023-01-30T20:59:56.072Z,1.00
2023-01-30T21:02:24.697Z,1.10
2023-01-30T21:04:53.485Z,1.10
2023-01-30T21:07:22.012Z,1.00
2023-01-30T21:09:50.688Z,0.80
2023-01-30T21:12:21.142Z,1.10
2023-01-30T21:14:49.656Z,0.90
2023-01-30T21:17:18.355Z,1.00
2023-01-30T21:19:46.868Z,0.98
2023-01-30T21:22:15.812Z,1.20
2023-01-30T21:24:44.369Z,1.20
2023-01-30T21:27:12.983Z,1.02
2023-01-30T21:29:41.550Z,1.02
2023-01-30T21:32:10.148Z,1.30
2023-01-30T21:34:39.190Z,1.30
2023-01-30T21:37:26.089Z,1.00
2023-01-30T21:40:13.152Z,1.10
2023-01-30T21:43:00.005Z,1.00
2023-01-30T21:45:28.501Z,1.33
2023-01-30T21:47:57.118Z,1.05
2023-01-30T21:50:28.491Z,1.30
2023-01-30T21:52:57.399Z,1.00
2023-01-30T21:55:28.355Z,1.30
2023-01-30T21:57:56.924Z,1.10
2023-01-30T22:00:25.460Z,1.30
2023-01-30T22:02:53.774Z,1.30
2023-01-30T22:05:22.486Z,1.30
2023-01-30T22:07:51.106Z,1.13
2023-01-30T22:10:19.742Z,1.08
2023-01-30T22:12:49.471Z,1.20
2023-01-30T22:15:18.198Z,1.10
2023-01-30T22:17:46.432Z,1.27
2023-01-30T22:20:15.308Z,1.30
2023-01-30T22:22:43.856Z,1.50
2023-01-30T22:25:12.884Z,1.10
2023-01-30T22:27:41.492Z,1.35
2023-01-30T22:30:10.707Z,1.40
2023-01-30T22:32:39.645Z,1.10
2023-01-30T22:35:08.803Z,1.52
2023-01-30T22:37:37.353Z,1.88
2023-01-30T22:40:06.504Z,1.23
2023-01-30T22:42:35.062Z,1.60
2023-01-30T22:45:03.879Z,1.35
2023-01-30T22:47:32.520Z,1.48
2023-01-30T22:50:01.051Z,1.30
2023-01-30T22:52:29.641Z,1.40
2023-01-30T22:54:58.256Z,1.40
2023-01-30T22:57:26.887Z,1.40
2023-01-30T22:59:55.419Z,1.33
2023-01-30T23:02:24.008Z,1.45
2023-01-30T23:04:52.899Z,1.10
2023-01-30T23:07:23.982Z,1.40
2023-01-30T23:09:52.902Z,1.15
2023-01-30T23:12:40.235Z,1.40
2023-01-30T23:15:09.434Z,1.30
2023-01-30T23:17:56.399Z,1.10
2023-01-30T23:20:24.987Z,1.15
2023-01-30T23:22:54.560Z,1.73
2023-01-30T23:25:23.207Z,1.50
2023-01-30T23:27:51.799Z,1.35
2023-01-30T23:30:20.451Z,1.60
2023-01-30T23:32:49.065Z,2.03
2023-01-30T23:35:18.073Z,1.70
2023-01-30T23:38:04.671Z,1.30
2023-01-30T23:40:33.170Z,1.40
2023-01-30T23:43:01.828Z,1.38
2023-01-30T23:45:30.613Z,1.67
2023-01-30T23:47:59.195Z,1.65
2023-01-30T23:50:27.767Z,1.55
2023-01-30T23:52:56.348Z,1.38
2023-01-30T23:55:24.917Z,1.83
2023-01-30T23:57:53.457Z,1.60
